createdAt,value
2022-09-09T00:01:39.033Z,0.60
2022-09-09T00:04:30.590Z,0.40
2022-09-09T00:07:27.331Z,0.52
2022-09-09T00:10:21.706Z,0.40
2022-09-09T00:12:56.183Z,0.32
2022-09-09T00:15:29.579Z,0.60
2022-09-09T00:18:34.895Z,0.50
2022-09-09T00:21:24.095Z,0.50
2022-09-09T00:23:56.873Z,0.40
2022-09-09T00:26:31.240Z,0.57
2022-09-09T00:29:34.484Z,0.45
2022-09-09T00:32:12.444Z,0.50
2022-09-09T00:34:48.100Z,0.60
2022-09-09T00:37:15.421Z,0.40
2022-09-09T00:39:45.705Z,0.43
2022-09-09T00:42:21.041Z,0.50
2022-09-09T00:45:07.727Z,0.55
2022-09-09T00:48:00.108Z,0.45
2022-09-09T00:50:48.073Z,0.60
2022-09-09T00:53:14.607Z,0.68
2022-09-09T00:56:06.779Z,0.40
2022-09-09T00:58:33.536Z,0.70
2022-09-09T01:01:00.112Z,0.60
2022-09-09T01:03:37.192Z,0.47
2022-09-09T01:06:13.911Z,0.50
2022-09-09T01:09:05.925Z,0.60
2022-09-09T01:11:50.871Z,0.50
2022-09-09T01:14:33.376Z,0.52
2022-09-09T01:17:04.490Z,0.60
2022-09-09T01:19:46.394Z,0.57
2022-09-09T01:22:51.402Z,0.70
2022-09-09T01:25:29.563Z,0.50
2022-09-09T01:28:00.094Z,0.38
2022-09-09T01:30:28.415Z,0.67
2022-09-09T01:32:59.374Z,0.65
2022-09-09T01:35:28.913Z,0.70
2022-09-09T01:37:55.451Z,0.50
2022-09-09T01:40:21.937Z,0.68
2022-09-09T01:42:48.668Z,0.67
2022-09-09T01:45:15.263Z,0.60
2022-09-09T01:47:42.270Z,0.93
2022-09-09T01:50:12.605Z,0.63
2022-09-09T01:52:39.421Z,0.77
2022-09-09T01:55:06.966Z,0.60
2022-09-09T01:58:11.202Z,0.60
2022-09-09T02:00:45.739Z,0.60
2022-09-09T02:03:26.190Z,0.70
2022-09-09T02:06:21.142Z,0.60
2022-09-09T02:08:54.009Z,0.60
2022-09-09T02:11:23.841Z,0.60
2022-09-09T02:13:53.902Z,0.60
2022-09-09T02:16:29.112Z,0.68
2022-09-09T02:19:04.132Z,0.65
2022-09-09T02:21:32.378Z,0.90
2022-09-09T02:24:05.461Z,0.57
2022-09-09T02:26:34.860Z,0.68
2022-09-09T02:29:05.799Z,0.50
2022-09-09T02:31:36.785Z,0.57
2022-09-09T02:34:06.050Z,0.60
2022-09-09T02:36:35.162Z,0.80
2022-09-09T02:39:02.921Z,0.60
2022-09-09T02:41:41.457Z,0.60
2022-09-09T02:44:13.281Z,0.70
2022-09-09T02:47:07.821Z,0.53
2022-09-09T02:49:50.474Z,0.70
2022-09-09T02:52:23.926Z,0.90
2022-09-09T02:54:56.666Z,0.63
2022-09-09T02:57:30.321Z,0.70
2022-09-09T02:59:59.526Z,1.17
2022-09-09T03:02:26.422Z,0.70
2022-09-09T03:04:52.930Z,0.93
2022-09-09T03:07:20.577Z,0.77
2022-09-09T03:09:47.068Z,0.73
2022-09-09T03:12:13.828Z,0.70
2022-09-09T03:14:44.219Z,0.70
2022-09-09T03:17:10.678Z,0.70
2022-09-09T03:19:37.148Z,0.80
2022-09-09T03:22:05.128Z,0.70
2022-09-09T03:24:31.613Z,1.10
2022-09-09T03:26:58.427Z,0.88
2022-09-09T03:29:24.988Z,0.80
2022-09-09T03:31:52.137Z,0.80
2022-09-09T03:34:18.687Z,1.10
2022-09-09T03:36:45.541Z,0.80
2022-09-09T03:39:11.961Z,0.80
2022-09-09T03:41:38.405Z,1.00
2022-09-09T03:44:04.947Z,0.70
2022-09-09T03:46:32.263Z,0.85
2022-09-09T03:48:59.074Z,0.80
2022-09-09T03:51:25.583Z,0.82
2022-09-09T03:53:52.079Z,0.70
2022-09-09T03:56:18.484Z,0.70
2022-09-09T03:58:44.993Z,0.85
2022-09-09T04:01:15.637Z,0.70
2022-09-09T04:03:42.286Z,0.88
2022-09-09T04:06:10.426Z,0.82
2022-09-09T04:08:37.313Z,0.68
2022-09-09T04:11:05.985Z,0.80
2022-09-09T04:13:33.839Z,0.80
2022-09-09T04:16:02.183Z,0.77
2022-09-09T04:18:31.648Z,0.77
2022-09-09T04:20:58.470Z,0.60
2022-09-09T04:23:30.347Z,1.00
2022-09-09T04:25:58.614Z,1.00
2022-09-09T04:28:28.341Z,0.98
2022-09-09T04:30:54.876Z,0.90
2022-09-09T04:33:22.022Z,0.80
2022-09-09T04:35:50.473Z,0.88
2022-09-09T04:38:20.339Z,0.80
2022-09-09T04:40:52.493Z,0.68
2022-09-09T04:43:19.936Z,0.90
2022-09-09T04:45:49.754Z,0.80
2022-09-09T04:48:16.420Z,0.77
2022-09-09T04:50:42.855Z,0.83
2022-09-09T04:53:09.318Z,0.80
2022-09-09T04:55:38.682Z,0.57
2022-09-09T04:58:06.865Z,0.73
2022-09-09T05:00:34.981Z,1.25
2022-09-09T05:03:05.307Z,0.80
2022-09-09T05:05:32.915Z,0.60
2022-09-09T05:08:07.599Z,0.60
2022-09-09T05:10:37.414Z,0.70
2022-09-09T05:13:03.904Z,0.70
2022-09-09T05:15:30.371Z,0.63
2022-09-09T05:18:01.209Z,0.65
2022-09-09T05:20:28.272Z,0.50
2022-09-09T05:22:55.547Z,0.70
2022-09-09T05:25:23.134Z,0.57
2022-09-09T05:27:50.547Z,0.53
2022-09-09T05:30:17.722Z,0.60
2022-09-09T05:32:44.376Z,0.70
2022-09-09T05:35:11.022Z,0.70
2022-09-09T05:37:37.512Z,0.70
2022-09-09T05:40:04.487Z,0.60
2022-09-09T05:42:32.124Z,0.55
2022-09-09T05:44:59.095Z,0.65
2022-09-09T05:47:28.593Z,0.70
2022-09-09T05:49:56.130Z,0.70
2022-09-09T05:52:23.708Z,0.50
2022-09-09T05:54:50.309Z,0.60
2022-09-09T05:57:16.762Z,0.70
2022-09-09T05:59:43.218Z,0.77
2022-09-09T06:02:10.248Z,0.82
2022-09-09T06:04:36.818Z,0.50
2022-09-09T06:07:03.700Z,0.57
2022-09-09T06:09:31.423Z,0.80
2022-09-09T06:11:59.159Z,0.60
2022-09-09T06:14:26.447Z,0.77
2022-09-09T06:16:52.943Z,0.90
2022-09-09T06:19:21.457Z,0.90
2022-09-09T06:21:48.817Z,0.77
2022-09-09T06:24:18.289Z,0.63
2022-09-09T06:26:46.335Z,0.88
2022-09-09T06:29:12.915Z,0.77
2022-09-09T06:31:39.413Z,0.70
2022-09-09T06:34:08.247Z,1.10
2022-09-09T06:36:37.763Z,0.90
2022-09-09T06:39:05.504Z,0.80
2022-09-09T06:41:33.993Z,1.00
2022-09-09T06:44:00.673Z,0.80
2022-09-09T06:46:30.178Z,1.00
2022-09-09T06:48:59.839Z,0.95
2022-09-09T06:51:35.267Z,0.75
2022-09-09T06:54:03.480Z,0.60
2022-09-09T06:56:41.328Z,0.77
2022-09-09T06:59:10.347Z,0.85
2022-09-09T07:01:40.810Z,1.00
2022-09-09T07:04:09.932Z,0.82
2022-09-09T07:06:39.170Z,0.87
2022-09-09T07:09:09.456Z,1.30
2022-09-09T07:11:42.738Z,1.00
2022-09-09T07:14:10.012Z,0.60
2022-09-09T07:16:38.257Z,0.82
2022-09-09T07:19:05.347Z,0.70
2022-09-09T07:21:33.068Z,0.88
2022-09-09T07:23:59.914Z,0.90
2022-09-09T07:26:29.022Z,0.60
2022-09-09T07:28:59.485Z,1.00
2022-09-09T07:31:31.687Z,0.80
2022-09-09T07:34:00.829Z,0.77
2022-09-09T07:36:35.865Z,0.68
2022-09-09T07:39:08.774Z,0.93
2022-09-09T07:41:44.063Z,0.70
2022-09-09T07:44:16.456Z,0.70
2022-09-09T07:46:43.841Z,0.60
2022-09-09T07:49:11.829Z,1.00
2022-09-09T07:51:41.951Z,1.10
2022-09-09T07:54:12.121Z,0.93
2022-09-09T07:56:40.331Z,0.90
2022-09-09T07:59:08.050Z,0.70
2022-09-09T08:01:38.515Z,0.50
2022-09-09T08:04:08.153Z,0.60
2022-09-09T08:06:40.887Z,0.57
2022-09-09T08:09:08.783Z,0.80
2022-09-09T08:11:39.241Z,0.90
2022-09-09T08:14:10.377Z,1.02
2022-09-09T08:16:41.372Z,0.80
2022-09-09T08:19:08.436Z,0.90
2022-09-09T08:21:37.756Z,0.70
2022-09-09T08:24:06.209Z,0.60
2022-09-09T08:26:38.301Z,0.80
2022-09-09T08:29:07.592Z,0.50
2022-09-09T08:31:39.523Z,0.55
2022-09-09T08:34:07.263Z,0.80
2022-09-09T08:36:37.667Z,0.77
2022-09-09T08:39:05.910Z,1.20
2022-09-09T08:41:44.545Z,0.70
2022-09-09T08:44:15.803Z,1.25
2022-09-09T08:46:53.151Z,0.77
2022-09-09T08:49:27.068Z,0.93
2022-09-09T08:51:58.248Z,1.20
2022-09-09T08:54:50.665Z,0.90
2022-09-09T08:57:22.617Z,0.70
2022-09-09T08:59:51.574Z,0.70
2022-09-09T09:02:39.322Z,0.70
2022-09-09T09:05:50.409Z,0.52
2022-09-09T09:08:31.853Z,0.88
2022-09-09T09:11:01.461Z,0.80
2022-09-09T09:13:43.901Z,0.70
2022-09-09T09:16:26.047Z,0.65
2022-09-09T09:18:53.479Z,0.60
2022-09-09T09:21:30.969Z,0.63
2022-09-09T09:24:00.230Z,1.05
2022-09-09T09:26:36.516Z,0.63
2022-09-09T09:29:13.304Z,0.80
2022-09-09T09:31:39.887Z,0.75
2022-09-09T09:34:06.572Z,0.70
2022-09-09T09:36:42.541Z,0.60
2022-09-09T09:41:58.743Z,1.30
2022-09-09T09:44:27.045Z,0.93
2022-09-09T09:46:54.522Z,0.77
2022-09-09T09:49:21.017Z,0.70
2022-09-09T09:51:48.179Z,0.70
2022-09-09T09:54:14.609Z,0.75
2022-09-09T09:56:42.091Z,1.33
2022-09-09T09:59:44.091Z,0.90
2022-09-09T10:02:21.367Z,0.50
2022-09-09T10:04:48.486Z,0.70
2022-09-09T10:07:23.257Z,0.70
2022-09-09T10:09:54.993Z,0.85
2022-09-09T10:12:31.226Z,0.77
2022-09-09T10:14:57.655Z,0.80
2022-09-09T10:17:33.858Z,0.80
2022-09-09T10:20:29.428Z,0.80
2022-09-09T10:23:12.029Z,0.60
2022-09-09T10:26:20.634Z,1.10
2022-09-09T10:28:56.359Z,0.70
2022-09-09T10:31:39.473Z,0.77
2022-09-09T10:34:36.299Z,0.70
2022-09-09T10:37:12.447Z,0.80
2022-09-09T10:39:43.748Z,0.88
2022-09-09T10:42:19.828Z,1.10
2022-09-09T10:45:05.534Z,0.80
2022-09-09T10:47:32.392Z,0.65
2022-09-09T10:50:13.026Z,0.90
2022-09-09T10:53:09.019Z,0.90
2022-09-09T10:55:44.945Z,0.75
2022-09-09T10:58:37.054Z,0.60
2022-09-09T11:01:17.264Z,0.68
2022-09-09T11:03:45.777Z,1.00
2022-09-09T11:06:19.032Z,0.65
2022-09-09T11:08:46.847Z,0.85
2022-09-09T11:11:22.630Z,0.80
2022-09-09T11:14:03.435Z,0.68
2022-09-09T11:16:49.149Z,0.82
2022-09-09T11:19:29.537Z,0.80
2022-09-09T11:21:59.591Z,0.47
2022-09-09T11:24:33.374Z,0.80
2022-09-09T11:27:08.398Z,0.73
2022-09-09T11:29:35.414Z,1.00
2022-09-09T11:32:38.674Z,0.90
2022-09-09T11:35:33.632Z,0.70
2022-09-09T11:38:03.155Z,0.57
2022-09-09T11:40:32.065Z,0.70
2022-09-09T11:43:10.393Z,0.70
2022-09-09T11:45:37.763Z,0.80
2022-09-09T11:48:06.885Z,0.80
2022-09-09T11:50:38.453Z,0.80
2022-09-09T11:53:25.274Z,0.90
2022-09-09T11:56:08.146Z,0.90
2022-09-09T11:58:41.570Z,0.73
2022-09-09T12:01:37.369Z,0.80
2022-09-09T12:04:21.277Z,0.93
2022-09-09T12:07:01.820Z,1.08
2022-09-09T12:09:31.292Z,0.77
2022-09-09T12:12:13.024Z,0.60
2022-09-09T12:14:42.228Z,0.63
2022-09-09T12:17:21.620Z,0.47
2022-09-09T12:19:49.261Z,0.80
2022-09-09T12:22:40.399Z,0.60
2022-09-09T12:25:23.080Z,0.55
2022-09-09T12:28:17.673Z,0.70
2022-09-09T12:30:53.027Z,1.03
2022-09-09T12:33:20.376Z,0.60
2022-09-09T12:35:55.812Z,0.80
2022-09-09T12:38:33.072Z,1.13
2022-09-09T12:40:59.907Z,0.80
2022-09-09T12:43:28.205Z,0.70
2022-09-09T12:46:04.463Z,0.80
2022-09-09T12:48:43.136Z,0.70
2022-09-09T12:51:27.047Z,0.70
2022-09-09T12:53:54.569Z,0.93
2022-09-09T12:56:23.848Z,0.60
2022-09-09T12:58:52.929Z,0.60
2022-09-09T13:01:27.337Z,0.60
2022-09-09T13:03:54.630Z,0.70
2022-09-09T13:06:32.481Z,1.50
2022-09-09T13:09:01.241Z,0.50
2022-09-09T13:11:39.290Z,0.75
2022-09-09T13:14:07.401Z,1.63
2022-09-09T13:16:40.431Z,2.28
2022-09-09T13:19:14.891Z,3.50
2022-09-09T13:21:41.668Z,3.93
2022-09-09T13:24:25.962Z,1.90
2022-09-09T13:27:02.774Z,1.25
2022-09-09T13:29:30.502Z,1.20
2022-09-09T13:32:08.862Z,1.70
2022-09-09T13:34:36.595Z,1.00
2022-09-09T13:37:07.880Z,0.60
2022-09-09T13:39:38.612Z,0.57
2022-09-09T13:42:05.673Z,0.57
2022-09-09T13:44:37.288Z,0.50
2022-09-09T13:47:10.233Z,0.60
2022-09-09T13:49:37.597Z,0.63
2022-09-09T13:52:19.863Z,0.70
2022-09-09T13:54:51.031Z,0.60
2022-09-09T13:57:26.240Z,0.70
2022-09-09T14:00:11.001Z,0.50
2022-09-09T14:02:39.711Z,0.47
2022-09-09T14:05:06.743Z,0.30
2022-09-09T14:07:33.327Z,0.40
2022-09-09T14:10:01.139Z,0.82
2022-09-09T14:12:27.998Z,0.50
2022-09-09T14:14:54.458Z,0.43
2022-09-09T14:17:20.992Z,0.60
2022-09-09T14:19:47.499Z,0.43
2022-09-09T14:22:14.136Z,0.43
2022-09-09T14:24:40.637Z,0.50
2022-09-09T14:27:07.436Z,0.50
2022-09-09T14:29:34.274Z,0.35
2022-09-09T14:32:01.984Z,0.35
2022-09-09T14:34:28.523Z,0.40
2022-09-09T14:36:55.011Z,0.40
2022-09-09T14:39:21.702Z,0.52
2022-09-09T14:41:48.245Z,0.47
2022-09-09T14:44:14.731Z,0.60
2022-09-09T14:46:43.350Z,0.63
2022-09-09T14:49:11.329Z,0.70
2022-09-09T14:51:37.807Z,0.60
2022-09-09T14:54:04.565Z,0.82
2022-09-09T14:56:35.399Z,0.60
2022-09-09T14:59:02.983Z,0.88
2022-09-09T15:01:30.768Z,0.60
2022-09-09T15:04:02.861Z,0.65
2022-09-09T15:06:33.914Z,0.57
2022-09-09T15:09:01.345Z,0.60
2022-09-09T15:11:31.399Z,0.65
2022-09-09T15:13:57.999Z,0.60
2022-09-09T15:16:27.235Z,0.90
2022-09-09T15:18:59.770Z,0.80
2022-09-09T15:21:29.480Z,0.60
2022-09-09T15:23:56.855Z,0.60
2022-09-09T15:26:23.897Z,0.60
2022-09-09T15:28:51.742Z,0.50
2022-09-09T15:31:19.808Z,0.70
2022-09-09T15:33:54.836Z,0.52
2022-09-09T15:36:24.698Z,0.43
2022-09-09T15:38:52.359Z,0.60
2022-09-09T15:41:21.044Z,0.30
2022-09-09T15:43:50.923Z,0.32
2022-09-09T15:46:29.469Z,0.30
2022-09-09T15:48:58.557Z,0.30
2022-09-09T15:51:43.996Z,0.40
2022-09-09T15:54:13.638Z,0.30
2022-09-09T15:56:41.119Z,0.40
2022-09-09T15:59:07.754Z,0.50
2022-09-09T16:01:35.319Z,0.50
2022-09-09T16:04:02.246Z,0.70
2022-09-09T16:06:29.999Z,0.60
2022-09-09T16:08:59.077Z,0.60
2022-09-09T16:11:34.929Z,0.60
2022-09-09T16:14:01.520Z,0.80
2022-09-09T16:16:30.362Z,0.70
2022-09-09T16:19:03.582Z,0.70
2022-09-09T16:21:33.349Z,0.90
2022-09-09T16:24:01.671Z,1.00
2022-09-09T16:26:31.772Z,1.00
2022-09-09T16:29:01.483Z,0.60
2022-09-09T16:31:29.412Z,0.90
2022-09-09T16:33:56.327Z,1.00
2022-09-09T16:36:28.808Z,0.80
2022-09-09T16:38:58.292Z,0.80
2022-09-09T16:41:27.018Z,0.80
2022-09-09T16:43:55.226Z,0.80
2022-09-09T16:46:22.810Z,0.80
2022-09-09T16:48:50.286Z,0.73
2022-09-09T16:51:24.321Z,0.80
2022-09-09T16:53:52.094Z,0.87
2022-09-09T16:56:21.486Z,0.85
2022-09-09T16:58:56.642Z,0.70
2022-09-09T17:01:24.674Z,0.88
2022-09-09T17:04:00.651Z,0.90
2022-09-09T17:06:29.881Z,0.97
2022-09-09T17:08:58.255Z,0.70
2022-09-09T17:11:25.269Z,0.77
2022-09-09T17:13:53.307Z,1.17
2022-09-09T17:16:23.744Z,0.90
2022-09-09T17:18:53.622Z,0.80
2022-09-09T17:21:26.278Z,1.00
2022-09-09T17:23:53.881Z,1.20
2022-09-09T17:26:22.620Z,1.00
2022-09-09T17:28:49.920Z,1.17
2022-09-09T17:31:18.895Z,0.80
2022-09-09T17:33:47.581Z,1.00
2022-09-09T17:36:17.507Z,0.70
2022-09-09T17:38:44.381Z,1.13
2022-09-09T17:41:14.159Z,1.30
2022-09-09T17:43:41.223Z,1.00
2022-09-09T17:46:22.428Z,0.80
2022-09-09T17:48:50.995Z,0.90
2022-09-09T17:51:25.549Z,0.90
2022-09-09T17:53:54.506Z,0.95
2022-09-09T17:56:22.683Z,1.63
2022-09-09T17:58:53.810Z,1.27
2022-09-09T18:01:27.894Z,0.98
2022-09-09T18:03:57.492Z,0.95
2022-09-09T18:06:30.729Z,1.17
2022-09-09T18:08:59.522Z,1.00
2022-09-09T18:11:28.937Z,1.30
2022-09-09T18:14:01.237Z,0.95
2022-09-09T18:16:31.470Z,1.05
2022-09-09T18:18:58.550Z,0.90
2022-09-09T18:21:27.558Z,0.67
2022-09-09T18:23:54.144Z,0.80
2022-09-09T18:26:25.825Z,1.00
2022-09-09T18:28:55.525Z,1.00
2022-09-09T18:31:24.095Z,1.05
2022-09-09T18:33:53.590Z,0.80
2022-09-09T18:36:26.242Z,0.88
2022-09-09T18:38:53.294Z,1.10
2022-09-09T18:41:22.707Z,0.93
2022-09-09T18:43:55.087Z,0.93
2022-09-09T18:46:22.540Z,1.00
2022-09-09T18:48:50.560Z,1.00
2022-09-09T18:51:20.574Z,1.00
2022-09-09T18:53:54.875Z,1.00
2022-09-09T18:56:21.919Z,0.88
2022-09-09T18:58:55.913Z,0.80
2022-09-09T19:01:23.015Z,0.90
2022-09-09T19:03:49.822Z,1.17
2022-09-09T19:06:19.357Z,0.90
2022-09-09T19:08:46.948Z,0.70
2022-09-09T19:11:16.367Z,0.90
2022-09-09T19:13:43.693Z,1.10
2022-09-09T19:16:15.075Z,1.02
2022-09-09T19:18:44.848Z,1.10
2022-09-09T19:21:18.293Z,1.08
2022-09-09T19:23:53.483Z,0.90
2022-09-09T19:26:20.471Z,1.08
2022-09-09T19:28:49.837Z,1.00
2022-09-09T19:31:19.253Z,0.90
2022-09-09T19:33:47.639Z,0.90
2022-09-09T19:36:17.861Z,1.07
2022-09-09T19:38:46.226Z,1.02
2022-09-09T19:41:19.313Z,0.80
2022-09-09T19:43:46.910Z,0.93
2022-09-09T19:46:15.609Z,0.75
2022-09-09T19:48:43.204Z,1.00
2022-09-09T19:51:16.732Z,1.00
2022-09-09T19:53:48.792Z,1.20
2022-09-09T19:56:17.875Z,0.95
2022-09-09T19:58:47.196Z,0.90
2022-09-09T20:01:15.371Z,1.17
2022-09-09T20:03:43.555Z,0.93
2022-09-09T20:06:12.186Z,1.02
2022-09-09T20:08:40.034Z,1.05
2022-09-09T20:11:08.191Z,1.33
2022-09-09T20:13:38.900Z,1.50
2022-09-09T20:16:08.329Z,1.00
2022-09-09T20:18:37.799Z,0.90
2022-09-09T20:21:09.483Z,1.20
2022-09-09T20:23:37.350Z,0.98
2022-09-09T20:26:06.709Z,1.20
2022-09-09T20:28:35.732Z,1.15
2022-09-09T20:31:06.714Z,1.27
2022-09-09T20:33:34.351Z,1.10
2022-09-09T20:36:05.280Z,1.10
2022-09-09T20:38:35.154Z,1.00
2022-09-09T20:41:04.914Z,1.27
2022-09-09T20:43:31.378Z,1.13
2022-09-09T20:46:06.307Z,0.82
2022-09-09T20:48:34.449Z,0.93
2022-09-09T20:51:08.550Z,1.10
2022-09-09T20:53:35.160Z,0.85
2022-09-09T20:56:03.552Z,0.93
2022-09-09T20:58:33.722Z,0.93
2022-09-09T21:01:00.778Z,0.82
2022-09-09T21:03:32.294Z,0.77
2022-09-09T21:06:00.013Z,0.90
2022-09-09T21:08:28.110Z,0.80
2022-09-09T21:10:55.588Z,0.70
2022-09-09T21:13:22.759Z,0.85
2022-09-09T21:15:50.738Z,0.97
2022-09-09T21:18:18.617Z,0.90
2022-09-09T21:20:45.864Z,1.00
2022-09-09T21:23:14.090Z,0.80
2022-09-09T21:25:40.618Z,1.20
2022-09-09T21:28:07.919Z,0.80
2022-09-09T21:30:41.946Z,0.90
2022-09-09T21:33:10.692Z,1.00
2022-09-09T21:35:39.485Z,1.00
2022-09-09T21:38:17.321Z,0.85
2022-09-09T21:40:49.582Z,1.10
2022-09-09T21:43:17.553Z,1.10
2022-09-09T21:45:44.606Z,1.20
2022-09-09T21:48:13.593Z,0.90
2022-09-09T21:50:42.221Z,0.88
2022-09-09T21:53:11.119Z,0.90
2022-09-09T21:55:41.698Z,0.93
2022-09-09T21:58:09.982Z,0.98
2022-09-09T22:00:36.856Z,0.90
2022-09-09T22:03:03.902Z,1.05
2022-09-09T22:05:31.415Z,1.20
2022-09-09T22:07:58.532Z,1.05
2022-09-09T22:10:28.331Z,1.00
2022-09-09T22:12:54.886Z,1.10
2022-09-09T22:15:21.737Z,1.15
2022-09-09T22:17:49.074Z,1.20
2022-09-09T22:20:16.022Z,0.90
2022-09-09T22:22:42.533Z,1.13
2022-09-09T22:25:09.392Z,1.02
2022-09-09T22:27:35.867Z,1.20
2022-09-09T22:30:02.468Z,1.03
2022-09-09T22:32:28.982Z,1.38
2022-09-09T22:34:55.421Z,1.10
2022-09-09T22:37:22.896Z,1.15
2022-09-09T22:39:49.582Z,1.40
2022-09-09T22:42:16.107Z,1.00
2022-09-09T22:44:42.572Z,1.10
2022-09-09T22:47:09.058Z,1.10
2022-09-09T22:49:37.454Z,1.00
2022-09-09T22:52:04.007Z,0.90
2022-09-09T22:54:30.471Z,0.70
2022-09-09T22:56:56.890Z,0.85
2022-09-09T22:59:23.545Z,0.93
2022-09-09T23:01:51.363Z,0.77
2022-09-09T23:04:22.850Z,1.00
2022-09-09T23:06:49.265Z,0.90
2022-09-09T23:09:15.699Z,1.10
2022-09-09T23:11:42.201Z,1.08
2022-09-09T23:14:11.508Z,0.90
2022-09-09T23:16:40.681Z,1.00
2022-09-09T23:19:15.876Z,0.87
2022-09-09T23:21:46.099Z,1.20
2022-09-09T23:24:16.081Z,0.90
2022-09-09T23:26:44.679Z,0.90
2022-09-09T23:29:14.643Z,1.08
2022-09-09T23:31:44.917Z,1.00
2022-09-09T23:34:13.003Z,0.70
2022-09-09T23:36:41.267Z,0.88
2022-09-09T23:39:09.217Z,1.00
2022-09-09T23:41:36.956Z,1.08
2022-09-09T23:44:04.537Z,0.80
2022-09-09T23:46:32.201Z,0.93
2022-09-09T23:48:59.628Z,1.17
2022-09-09T23:51:30.405Z,0.90
2022-09-09T23:54:00.384Z,1.08
2022-09-09T23:56:32.509Z,1.00
2022-09-09T23:58:59.529Z,1.02
